sensor_id;sensor_type;location;lat;lon;timestamp;pressure;altitude;pressure_sealevel;temperature;humidity
80509;BME280;69838;52.602;13.434;2023-08-06T00:00:25;100384.38;;;15.12;97.24
80509;BME280;69838;52.602;13.434;2023-08-06T00:01:10;100370.03;;;15.10;97.35
80509;BME280;69838;52.602;13.434;2023-08-06T00:01:56;100380.91;;;15.10;96.97
80509;BME280;69838;52.602;13.434;2023-08-06T00:02:41;100379.91;;;15.11;97.29
80509;BME280;69838;52.602;13.434;2023-08-06T00:03:26;100380.91;;;15.10;97.13
80509;BME280;69838;52.602;13.434;2023-08-06T00:04:11;100379.91;;;15.11;97.23
80509;BME280;69838;52.602;13.434;2023-08-06T00:04:57;100378.19;;;15.10;97.69
80509;BME280;69838;52.602;13.434;2023-08-06T00:05:42;100371.66;;;15.12;97.17
80509;BME280;69838;52.602;13.434;2023-08-06T00:06:28;100375.00;;;15.16;97.43
80509;BME280;69838;52.602;13.434;2023-08-06T00:07:13;100377.94;;;15.13;97.56
80509;BME280;69838;52.602;13.434;2023-08-06T00:07:58;100382.63;;;15.11;97.50
80509;BME280;69838;52.602;13.434;2023-08-06T00:08:43;100380.91;;;15.10;97.37
80509;BME280;69838;52.602;13.434;2023-08-06T00:09:29;100378.09;;;15.11;97.46
80509;BME280;69838;52.602;13.434;2023-08-06T00:10:14;100378.94;;;15.12;97.35
80509;BME280;69838;52.602;13.434;2023-08-06T00:10:59;100381.66;;;15.12;97.67
80509;BME280;69838;52.602;13.434;2023-08-06T00:11:45;100385.34;;;15.11;97.66
80509;BME280;69838;52.602;13.434;2023-08-06T00:12:31;100379.16;;;15.08;97.68
80509;BME280;69838;52.602;13.434;2023-08-06T00:13:16;100381.13;;;15.06;97.54
80509;BME280;69838;52.602;13.434;2023-08-06T00:14:02;100375.16;;;15.01;97.77
80509;BME280;69838;52.602;13.434;2023-08-06T00:14:50;100372.44;;;15.01;97.81
80509;BME280;69838;52.602;13.434;2023-08-06T00:15:36;100380.59;;;15.01;97.90
80509;BME280;69838;52.602;13.434;2023-08-06T00:16:21;100388.00;;;14.99;98.33
80509;BME280;69838;52.602;13.434;2023-08-06T00:17:07;100378.09;;;14.98;98.56
80509;BME280;69838;52.602;13.434;2023-08-06T00:17:52;100370.94;;;14.97;98.60
80509;BME280;69838;52.602;13.434;2023-08-06T00:18:37;100376.28;;;14.99;98.59
80509;BME280;69838;52.602;13.434;2023-08-06T00:19:22;100374.63;;;14.96;98.55
80509;BME280;69838;52.602;13.434;2023-08-06T00:20:08;100376.38;;;14.97;98.91
80509;BME280;69838;52.602;13.434;2023-08-06T00:20:53;100372.91;;;14.95;98.57
80509;BME280;69838;52.602;13.434;2023-08-06T00:21:38;100374.63;;;14.96;98.61
80509;BME280;69838;52.602;13.434;2023-08-06T00:22:24;100368.53;;;14.93;98.53
80509;BME280;69838;52.602;13.434;2023-08-06T00:23:09;100368.13;;;14.99;98.81
80509;BME280;69838;52.602;13.434;2023-08-06T00:23:54;100362.88;;;14.96;98.71
80509;BME280;69838;52.602;13.434;2023-08-06T00:24:39;100357.47;;;14.96;98.53
80509;BME280;69838;52.602;13.434;2023-08-06T00:25:25;100368.31;;;14.96;99.00
80509;BME280;69838;52.602;13.434;2023-08-06T00:26:10;100361.78;;;14.98;98.93
80509;BME280;69838;52.602;13.434;2023-08-06T00:26:55;100358.09;;;14.99;98.83
80509;BME280;69838;52.602;13.434;2023-08-06T00:27:40;100358.84;;;15.01;99.01
80509;BME280;69838;52.602;13.434;2023-08-06T00:28:26;100356.03;;;15.03;98.82
80509;BME280;69838;52.602;13.434;2023-08-06T00:29:11;100350.47;;;15.04;98.82
80509;BME280;69838;52.602;13.434;2023-08-06T00:29:56;100359.50;;;15.05;98.39
80509;BME280;69838;52.602;13.434;2023-08-06T00:30:41;100356.03;;;15.03;98.61
80509;BME280;69838;52.602;13.434;2023-08-06T00:31:26;100352.44;;;15.02;98.12
80509;BME280;69838;52.602;13.434;2023-08-06T00:32:12;100357.78;;;15.04;98.60
80509;BME280;69838;52.602;13.434;2023-08-06T00:32:57;100355.06;;;15.04;98.42
80509;BME280;69838;52.602;13.434;2023-08-06T00:33:42;100354.69;;;15.08;98.61
80509;BME280;69838;52.602;13.434;2023-08-06T00:34:28;100351.22;;;15.06;98.25
80509;BME280;69838;52.602;13.434;2023-08-06T00:35:13;100351.22;;;15.06;98.09
80509;BME280;69838;52.602;13.434;2023-08-06T00:35:58;100345.25;;;15.01;98.31
80509;BME280;69838;52.602;13.434;2023-08-06T00:36:43;100351.44;;;15.03;98.38
80509;BME280;69838;52.602;13.434;2023-08-06T00:37:29;100346.13;;;15.02;98.65
80509;BME280;69838;52.602;13.434;2023-08-06T00:38:14;100347.22;;;14.99;98.48
80509;BME280;69838;52.602;13.434;2023-08-06T00:38:59;100347.97;;;15.01;98.43
80509;BME280;69838;52.602;13.434;2023-08-06T00:39:45;100348.97;;;15.00;98.73
80509;BME280;69838;52.602;13.434;2023-08-06T00:40:30;100347.22;;;14.99;98.83
80509;BME280;69838;52.602;13.434;2023-08-06T00:41:15;100343.75;;;14.97;98.77
80509;BME280;69838;52.602;13.434;2023-08-06T00:42:01;100342.91;;;14.97;99.04
80509;BME280;69838;52.602;13.434;2023-08-06T00:42:46;100340.28;;;14.95;98.94
80509;BME280;69838;52.602;13.434;2023-08-06T00:43:31;100342.00;;;14.96;99.35
80509;BME280;69838;52.602;13.434;2023-08-06T00:44:17;100343.66;;;14.99;99.09
80509;BME280;69838;52.602;13.434;2023-08-06T00:45:02;100341.16;;;14.96;99.19
80509;BME280;69838;52.602;13.434;2023-08-06T00:45:48;100342.75;;;14.98;98.57
80509;BME280;69838;52.602;13.434;2023-08-06T00:46:33;100343.75;;;14.97;98.95
80509;BME280;69838;52.602;13.434;2023-08-06T00:47:19;100346.59;;;14.96;98.63
80509;BME280;69838;52.602;13.434;2023-08-06T00:48:05;100343.75;;;14.97;99.19
80509;BME280;69838;52.602;13.434;2023-08-06T00:48:50;100345.47;;;14.98;99.24
80509;BME280;69838;52.602;13.434;2023-08-06T00:49:36;100351.69;;;15.00;99.19
80509;BME280;69838;52.602;13.434;2023-08-06T00:50:21;100348.97;;;15.00;98.93
80509;BME280;69838;52.602;13.434;2023-08-06T00:51:09;100338.09;;;15.00;98.90
80509;BME280;69838;52.602;13.434;2023-08-06T00:51:56;100340.69;;;15.02;98.91
80509;BME280;69838;52.602;13.434;2023-08-06T00:52:41;100343.53;;;15.00;99.02
80509;BME280;69838;52.602;13.434;2023-08-06T00:53:26;100346.38;;;14.99;98.86
80509;BME280;69838;52.602;13.434;2023-08-06T00:54:12;100342.66;;;15.00;99.06
80509;BME280;69838;52.602;13.434;2023-08-06T00:54:57;100343.53;;;15.00;99.08
80509;BME280;69838;52.602;13.434;2023-08-06T00:55:44;100341.78;;;14.99;98.95
80509;BME280;69838;52.602;13.434;2023-08-06T00:56:29;100339.81;;;15.01;99.22
80509;BME280;69838;52.602;13.434;2023-08-06T00:57:15;100342.66;;;15.00;99.29
80509;BME280;69838;52.602;13.434;2023-08-06T00:58:01;100335.59;;;14.97;99.30
80509;BME280;69838;52.602;13.434;2023-08-06T00:58:46;100343.75;;;14.97;99.46
80509;BME280;69838;52.602;13.434;2023-08-06T00:59:32;100338.53;;;14.94;99.69
80509;BME280;69838;52.602;13.434;2023-08-06T01:00:17;100337.78;;;14.92;99.58
80509;BME280;69838;52.602;13.434;2023-08-06T01:01:03;100340.28;;;14.95;99.52
80509;BME280;69838;52.602;13.434;2023-08-06T01:01:48;100341.78;;;14.99;99.67
80509;BME280;69838;52.602;13.434;2023-08-06T01:02:35;100343.75;;;14.97;99.59
80509;BME280;69838;52.602;13.434;2023-08-06T01:03:20;100345.25;;;15.01;99.67
80509;BME280;69838;52.602;13.434;2023-08-06T01:04:05;100339.19;;;14.98;99.59
80509;BME280;69838;52.602;13.434;2023-08-06T01:04:51;100338.31;;;14.97;99.49
80509;BME280;69838;52.602;13.434;2023-08-06T01:05:36;100336.56;;;14.96;99.48
80509;BME280;69838;52.602;13.434;2023-08-06T01:06:35;100333.09;;;14.94;99.57
80509;BME280;69838;52.602;13.434;2023-08-06T01:07:40;100335.72;;;14.96;100.00
80509;BME280;69838;52.602;13.434;2023-08-06T01:08:48;100338.66;;;14.93;100.00
80509;BME280;69838;52.602;13.434;2023-08-06T01:09:45;100329.63;;;14.92;100.00
80509;BME280;69838;52.602;13.434;2023-08-06T01:10:46;100337.91;;;14.91;99.89
80509;BME280;69838;52.602;13.434;2023-08-06T01:12:01;100329.84;;;14.89;100.00
80509;BME280;69838;52.602;13.434;2023-08-06T01:14:28;100336.94;;;14.92;100.00
80509;BME280;69838;52.602;13.434;2023-08-06T01:15:18;100330.59;;;14.91;100.00
80509;BME280;69838;52.602;13.434;2023-08-06T01:16:06;100335.28;;;14.89;99.95
80509;BME280;69838;52.602;13.434;2023-08-06T01:16:52;100339.75;;;14.90;100.00
80509;BME280;69838;52.602;13.434;2023-08-06T01:17:38;100327.25;;;14.87;100.00
80509;BME280;69838;52.602;13.434;2023-08-06T01:18:25;100329.63;;;14.92;100.00
80509;BME280;69838;52.602;13.434;2023-08-06T01:19:17;100318.97;;;14.89;100.00
80509;BME280;69838;52.602;13.434;2023-08-06T01:20:03;100331.59;;;14.90;100.00
80509;BME280;69838;52.602;13.434;2023-08-06T01:20:49;100337.03;;;14.90;100.00
80509;BME280;69838;52.602;13.434;2023-08-06T01:21:34;100323.56;;;14.88;100.00
80509;BME280;69838;52.602;13.434;2023-08-06T01:22:20;100327.88;;;14.91;100.00
80509;BME280;69838;52.602;13.434;2023-08-06T01:23:05;100326.16;;;14.90;100.00
80509;BME280;69838;52.602;13.434;2023-08-06T01:23:50;100319.88;;;14.89;100.00
80509;BME280;69838;52.602;13.434;2023-08-06T01:24:36;100323.97;;;14.95;100.00
80509;BME280;69838;52.602;13.434;2023-08-06T01:25:26;100326.69;;;14.95;100.00
80509;BME280;69838;52.602;13.434;2023-08-06T01:27:48;100319.97;;;14.88;100.00
80509;BME280;69838;52.602;13.434;2023-08-06T01:28:40;100319.88;;;14.89;100.00
80509;BME280;69838;52.602;13.434;2023-08-06T01:29:47;100317.25;;;14.88;100.00
80509;BME280;69838;52.602;13.434;2023-08-06T01:30:37;100320.09;;;14.86;100.00
80509;BME280;69838;52.602;13.434;2023-08-06T01:31:30;100319.97;;;14.88;100.00
80509;BME280;69838;52.602;13.434;2023-08-06T01:32:16;100316.38;;;14.87;100.00
80509;BME280;69838;52.602;13.434;2023-08-06T01:33:04;100313.78;;;14.86;100.00
80509;BME280;69838;52.602;13.434;2023-08-06T01:33:50;100318.22;;;14.87;100.00
80509;BME280;69838;52.602;13.434;2023-08-06T01:34:40;100310.94;;;14.87;100.00
80509;BME280;69838;52.602;13.434;2023-08-06T01:35:27;100310.19;;;14.85;100.00
80509;BME280;69838;52.602;13.434;2023-08-06T01:36:16;100314.97;;;14.82;100.00
80509;BME280;69838;52.602;13.434;2023-08-06T01:37:03;100311.19;;;14.84;100.00
80509;BME280;69838;52.602;13.434;2023-08-06T01:37:49;100304.00;;;14.83;100.00
80509;BME280;69838;52.602;13.434;2023-08-06T01:38:34;100308.47;;;14.84;100.00
80509;BME280;69838;52.602;13.434;2023-08-06T01:39:19;100299.88;;;14.78;100.00
80509;BME280;69838;52.602;13.434;2023-08-06T01:40:09;100298.56;;;14.83;100.00
80509;BME280;69838;52.602;13.434;2023-08-06T01:40:55;100303.13;;;14.83;100.00
80509;BME280;69838;52.602;13.434;2023-08-06T01:41:40;100302.03;;;14.85;100.00
80509;BME280;69838;52.602;13.434;2023-08-06T01:42:25;100302.03;;;14.85;100.00
80509;BME280;69838;52.602;13.434;2023-08-06T01:43:11;100304.66;;;14.87;100.00
80509;BME280;69838;52.602;13.434;2023-08-06T01:43:56;100297.59;;;14.84;100.00
80509;BME280;69838;52.602;13.434;2023-08-06T01:44:41;100306.41;;;14.88;100.00
80509;BME280;69838;52.602;13.434;2023-08-06T01:45:26;100301.94;;;14.87;100.00
80509;BME280;69838;52.602;13.434;2023-08-06T01:46:12;100305.66;;;14.86;100.00
80509;BME280;69838;52.602;13.434;2023-08-06T01:46:57;100304.66;;;14.87;100.00
80509;BME280;69838;52.602;13.434;2023-08-06T01:47:42;100301.16;;;14.85;100.00
80509;BME280;69838;52.602;13.434;2023-08-06T01:48:28;100300.22;;;14.86;100.00
80509;BME280;69838;52.602;13.434;2023-08-06T01:49:13;100300.97;;;14.88;100.00
80509;BME280;69838;52.602;13.434;2023-08-06T01:49:58;100293.56;;;14.90;100.00
80509;BME280;69838;52.602;13.434;2023-08-06T01:50:43;100297.03;;;14.92;100.00
80509;BME280;69838;52.602;13.434;2023-08-06T01:51:29;100300.72;;;14.91;100.00
80509;BME280;69838;52.602;13.434;2023-08-06T01:52:14;100292.69;;;14.89;100.00
80509;BME280;69838;52.602;13.434;2023-08-06T01:52:59;100295.28;;;14.91;100.00
80509;BME280;69838;52.602;13.434;2023-08-06T01:53:44;100292.56;;;14.91;100.00
80509;BME280;69838;52.602;13.434;2023-08-06T01:54:30;100293.34;;;14.93;100.00
80509;BME280;69838;52.602;13.434;2023-08-06T01:55:15;100295.16;;;14.93;100.00
80509;BME280;69838;52.602;13.434;2023-08-06T01:56:00;100293.09;;;14.96;100.00
80509;BME280;69838;52.602;13.434;2023-08-06T01:56:45;100289.63;;;14.94;100.00
80509;BME280;69838;52.602;13.434;2023-08-06T01:57:31;100296.06;;;14.93;100.00
80509;BME280;69838;52.602;13.434;2023-08-06T01:58:16;100287.00;;;14.93;100.00
80509;BME280;69838;52.602;13.434;2023-08-06T01:59:01;100294.31;;;14.92;100.00
80509;BME280;69838;52.602;13.434;2023-08-06T01:59:46;100280.72;;;14.92;100.00
80509;BME280;69838;52.602;13.434;2023-08-06T02:00:32;100287.91;;;14.93;100.00
80509;BME280;69838;52.602;13.434;2023-08-06T02:01:17;100283.31;;;14.94;100.00
80509;BME280;69838;52.602;13.434;2023-08-06T02:02:02;100282.47;;;14.93;100.00
80509;BME280;69838;52.602;13.434;2023-08-06T02:02:48;100281.56;;;14.93;100.00
80509;BME280;69838;52.602;13.434;2023-08-06T02:03:33;100282.47;;;14.93;100.00
80509;BME280;69838;52.602;13.434;2023-08-06T02:04:18;100283.22;;;14.95;100.00
80509;BME280;69838;52.602;13.434;2023-08-06T02:05:04;100271.34;;;14.96;100.00
80509;BME280;69838;52.602;13.434;2023-08-06T02:05:49;100275.69;;;14.99;100.00
80509;BME280;69838;52.602;13.434;2023-08-06T02:06:34;100278.53;;;14.97;100.00
80509;BME280;69838;52.602;13.434;2023-08-06T02:07:19;100279.50;;;14.96;100.00
80509;BME280;69838;52.602;13.434;2023-08-06T02:08:05;100280.72;;;14.92;100.00
80509;BME280;69838;52.602;13.434;2023-08-06T02:08:50;100278.00;;;14.92;100.00
80509;BME280;69838;52.602;13.434;2023-08-06T02:09:35;100270.97;;;14.89;100.00
80509;BME280;69838;52.602;13.434;2023-08-06T02:10:20;100264.63;;;14.89;100.00
80509;BME280;69838;52.602;13.434;2023-08-06T02:11:06;100270.81;;;14.91;100.00
80509;BME280;69838;52.602;13.434;2023-08-06T02:11:51;100265.53;;;14.89;100.00
80509;BME280;69838;52.602;13.434;2023-08-06T02:12:36;100268.09;;;14.91;100.00
80509;BME280;69838;52.602;13.434;2023-08-06T02:13:21;100270.06;;;14.89;100.00
80509;BME280;69838;52.602;13.434;2023-08-06T02:14:07;100266.59;;;14.87;100.00
80509;BME280;69838;52.602;13.434;2023-08-06T02:14:52;100270.06;;;14.89;100.00
80509;BME280;69838;52.602;13.434;2023-08-06T02:15:44;100258.34;;;14.88;100.00
80509;BME280;69838;52.602;13.434;2023-08-06T02:16:29;100271.06;;;14.88;100.00
80509;BME280;69838;52.602;13.434;2023-08-06T02:17:15;100268.34;;;14.88;100.00
80509;BME280;69838;52.602;13.434;2023-08-06T02:18:00;100266.72;;;14.85;100.00
80509;BME280;69838;52.602;13.434;2023-08-06T02:18:45;100269.31;;;14.87;100.00
80509;BME280;69838;52.602;13.434;2023-08-06T02:19:30;100268.34;;;14.88;100.00
80509;BME280;69838;52.602;13.434;2023-08-06T02:20:16;100269.31;;;14.87;100.00
80509;BME280;69838;52.602;13.434;2023-08-06T02:21:01;100272.03;;;14.87;100.00
80509;BME280;69838;52.602;13.434;2023-08-06T02:21:46;100264.88;;;14.86;100.00
80509;BME280;69838;52.602;13.434;2023-08-06T02:22:32;100277.56;;;14.85;100.00
80509;BME280;69838;52.602;13.434;2023-08-06T02:23:18;100271.38;;;14.83;100.00
80509;BME280;69838;52.602;13.434;2023-08-06T02:24:03;100268.56;;;14.85;100.00
80509;BME280;69838;52.602;13.434;2023-08-06T02:24:49;100267.81;;;14.83;100.00
80509;BME280;69838;52.602;13.434;2023-08-06T02:25:35;100271.16;;;14.86;100.00
80509;BME280;69838;52.602;13.434;2023-08-06T02:26:20;100266.59;;;14.87;100.00
80509;BME280;69838;52.602;13.434;2023-08-06T02:27:05;100262.91;;;14.88;100.00
80509;BME280;69838;52.602;13.434;2023-08-06T02:27:51;100265.84;;;14.85;100.00
80509;BME280;69838;52.602;13.434;2023-08-06T02:28:36;100259.66;;;14.83;100.00
80509;BME280;69838;52.602;13.434;2023-08-06T02:29:21;100265.00;;;14.84;100.00
80509;BME280;69838;52.602;13.434;2023-08-06T02:30:07;100260.31;;;14.86;100.00
80509;BME280;69838;52.602;13.434;2023-08-06T02:30:52;100263.13;;;14.85;100.00
80509;BME280;69838;52.602;13.434;2023-08-06T02:31:37;100264.25;;;14.82;100.00
80509;BME280;69838;52.602;13.434;2023-08-06T02:32:22;100263.34;;;14.82;100.00
80509;BME280;69838;52.602;13.434;2023-08-06T02:33:08;100261.63;;;14.81;100.00
80509;BME280;69838;52.602;13.434;2023-08-06T02:33:53;100262.59;;;14.80;100.00
80509;BME280;69838;52.602;13.434;2023-08-06T02:34:39;100256.41;;;14.78;100.00
80509;BME280;69838;52.602;13.434;2023-08-06T02:35:24;100260.09;;;14.77;100.00
80509;BME280;69838;52.602;13.434;2023-08-06T02:36:09;100252.72;;;14.79;100.00
80509;BME280;69838;52.602;13.434;2023-08-06T02:36:54;100247.28;;;14.79;100.00
80509;BME280;69838;52.602;13.434;2023-08-06T02:37:40;100256.19;;;14.81;100.00
80509;BME280;69838;52.602;13.434;2023-08-06T02:38:25;100254.44;;;14.80;100.00
80509;BME280;69838;52.602;13.434;2023-08-06T02:39:10;100248.25;;;14.78;100.00
80509;BME280;69838;52.602;13.434;2023-08-06T02:39:55;100249.22;;;14.77;100.00
80509;BME280;69838;52.602;13.434;2023-08-06T02:40:45;100248.38;;;14.76;100.00
80509;BME280;69838;52.602;13.434;2023-08-06T02:41:30;100245.53;;;14.78;100.00
80509;BME280;69838;52.602;13.434;2023-08-06T02:42:15;100248.16;;;14.79;100.00
80509;BME280;69838;52.602;13.434;2023-08-06T02:43:01;100250.88;;;14.79;100.00
80509;BME280;69838;52.602;13.434;2023-08-06T02:43:46;100250.66;;;14.82;100.00
80509;BME280;69838;52.602;13.434;2023-08-06T02:44:31;100250.75;;;14.81;100.00
80509;BME280;69838;52.602;13.434;2023-08-06T02:45:17;100252.72;;;14.79;100.00
80509;BME280;69838;52.602;13.434;2023-08-06T02:46:02;100247.50;;;14.76;100.00
80509;BME280;69838;52.602;13.434;2023-08-06T02:46:47;100252.09;;;14.75;100.00
80509;BME280;69838;52.602;13.434;2023-08-06T02:47:32;100246.75;;;14.74;100.00
80509;BME280;69838;52.602;13.434;2023-08-06T02:48:18;100245.75;;;14.75;100.00
80509;BME280;69838;52.602;13.434;2023-08-06T02:49:03;100254.91;;;14.74;100.00
80509;BME280;69838;52.602;13.434;2023-08-06T02:49:48;100244.91;;;14.74;100.00
80509;BME280;69838;52.602;13.434;2023-08-06T02:50:40;100235.78;;;14.75;100.00
80509;BME280;69838;52.602;13.434;2023-08-06T02:51:26;100239.59;;;14.73;100.00
80509;BME280;69838;52.602;13.434;2023-08-06T02:52:11;100241.44;;;14.72;100.00
80509;BME280;69838;52.602;13.434;2023-08-06T02:52:56;100241.56;;;14.70;100.00
80509;BME280;69838;52.602;13.434;2023-08-06T02:53:42;100244.25;;;14.70;100.00
80509;BME280;69838;52.602;13.434;2023-08-06T02:54:27;100242.41;;;14.71;100.00
80509;BME280;69838;52.602;13.434;2023-08-06T02:55:12;100237.97;;;14.70;100.00
80509;BME280;69838;52.602;13.434;2023-08-06T02:55:57;100229.81;;;14.70;100.00
80509;BME280;69838;52.602;13.434;2023-08-06T02:56:44;100236.22;;;14.69;100.00
80509;BME280;69838;52.602;13.434;2023-08-06T02:57:30;100240.59;;;14.72;100.00
80509;BME280;69838;52.602;13.434;2023-08-06T02:58:15;100236.13;;;14.70;100.00
80509;BME280;69838;52.602;13.434;2023-08-06T02:59:00;100233.41;;;14.70;100.00
80509;BME280;69838;52.602;13.434;2023-08-06T02:59:45;100235.38;;;14.68;100.00
80509;BME280;69838;52.602;13.434;2023-08-06T03:00:31;100234.38;;;14.69;100.00
80509;BME280;69838;52.602;13.434;2023-08-06T03:01:16;100233.41;;;14.70;100.00
80509;BME280;69838;52.602;13.434;2023-08-06T03:02:01;100232.44;;;14.72;100.00
80509;BME280;69838;52.602;13.434;2023-08-06T03:02:47;100231.44;;;14.73;100.00
80509;BME280;69838;52.602;13.434;2023-08-06T03:03:32;100234.16;;;14.73;100.00
80509;BME280;69838;52.602;13.434;2023-08-06T03:04:18;100235.91;;;14.74;100.00
80509;BME280;69838;52.602;13.434;2023-08-06T03:05:03;100236.13;;;14.70;100.00
80509;BME280;69838;52.602;13.434;2023-08-06T03:05:53;100236.97;;;14.71;100.00
80509;BME280;69838;52.602;13.434;2023-08-06T03:06:38;100235.38;;;14.68;100.00
80509;BME280;69838;52.602;13.434;2023-08-06T03:07:23;100233.63;;;14.67;100.00
80509;BME280;69838;52.602;13.434;2023-08-06T03:08:09;100237.34;;;14.66;100.00
80509;BME280;69838;52.602;13.434;2023-08-06T03:08:54;100239.31;;;14.64;100.00
80509;BME280;69838;52.602;13.434;2023-08-06T03:09:39;100241.00;;;14.65;100.00
80509;BME280;69838;52.602;13.434;2023-08-06T03:10:24;100235.59;;;14.65;100.00
80509;BME280;69838;52.602;13.434;2023-08-06T03:11:09;100237.56;;;14.63;100.00
80509;BME280;69838;52.602;13.434;2023-08-06T03:11:55;100234.84;;;14.63;100.00
80509;BME280;69838;52.602;13.434;2023-08-06T03:12:40;100235.69;;;14.64;100.00
80509;BME280;69838;52.602;13.434;2023-08-06T03:13:25;100237.56;;;14.63;100.00
80509;BME280;69838;52.602;13.434;2023-08-06T03:14:10;100241.22;;;14.62;100.00
80509;BME280;69838;52.602;13.434;2023-08-06T03:14:56;100234.19;;;14.60;100.00
80509;BME280;69838;52.602;13.434;2023-08-06T03:15:41;100234.84;;;14.63;100.00
80509;BME280;69838;52.602;13.434;2023-08-06T03:16:26;100233.09;;;14.62;100.00
80509;BME280;69838;52.602;13.434;2023-08-06T03:17:12;100232.13;;;14.63;100.00
80509;BME280;69838;52.602;13.434;2023-08-06T03:17:57;100237.34;;;14.66;100.00
80509;BME280;69838;52.602;13.434;2023-08-06T03:18:42;100231.16;;;14.64;100.00
80509;BME280;69838;52.602;13.434;2023-08-06T03:19:27;100233.88;;;14.64;100.00
80509;BME280;69838;52.602;13.434;2023-08-06T03:20:13;100230.50;;;14.61;100.00
80509;BME280;69838;52.602;13.434;2023-08-06T03:20:58;100234.84;;;14.63;100.00
80509;BME280;69838;52.602;13.434;2023-08-06T03:21:43;100226.69;;;14.63;100.00
80509;BME280;69838;52.602;13.434;2023-08-06T03:22:28;100233.09;;;14.62;100.00
80509;BME280;69838;52.602;13.434;2023-08-06T03:23:14;100226.91;;;14.60;100.00
80509;BME280;69838;52.602;13.434;2023-08-06T03:23:59;100230.38;;;14.62;100.00
80509;BME280;69838;52.602;13.434;2023-08-06T03:24:44;100231.38;;;14.61;100.00
80509;BME280;69838;52.602;13.434;2023-08-06T03:25:29;100219.75;;;14.59;100.00
80509;BME280;69838;52.602;13.434;2023-08-06T03:26:15;100225.19;;;14.59;100.00
80509;BME280;69838;52.602;13.434;2023-08-06T03:27:00;100221.47;;;14.60;100.00
80509;BME280;69838;52.602;13.434;2023-08-06T03:27:45;100218.00;;;14.58;100.00
80509;BME280;69838;52.602;13.434;2023-08-06T03:28:30;100218.00;;;14.58;100.00
80509;BME280;69838;52.602;13.434;2023-08-06T03:29:16;100220.38;;;14.63;100.00
80509;BME280;69838;52.602;13.434;2023-08-06T03:30:01;100221.47;;;14.60;100.00
80509;BME280;69838;52.602;13.434;2023-08-06T03:30:46;100216.03;;;14.60;100.00
80509;BME280;69838;52.602;13.434;2023-08-06T03:31:31;100213.44;;;14.59;100.00
80509;BME280;69838;52.602;13.434;2023-08-06T03:32:17;100211.34;;;14.62;100.00
80509;BME280;69838;52.602;13.434;2023-08-06T03:33:02;100212.34;;;14.61;100.00
80509;BME280;69838;52.602;13.434;2023-08-06T03:33:47;100214.22;;;14.61;100.00
80509;BME280;69838;52.602;13.434;2023-08-06T03:34:32;100206.91;;;14.61;100.00
80509;BME280;69838;52.602;13.434;2023-08-06T03:35:17;100201.59;;;14.60;100.00
80509;BME280;69838;52.602;13.434;2023-08-06T03:36:03;100208.88;;;14.59;100.00
80509;BME280;69838;52.602;13.434;2023-08-06T03:36:48;100196.28;;;14.58;100.00
80509;BME280;69838;52.602;13.434;2023-08-06T03:37:33;100199.84;;;14.59;100.00
80509;BME280;69838;52.602;13.434;2023-08-06T03:38:19;100199.97;;;14.57;100.00
80509;BME280;69838;52.602;13.434;2023-08-06T03:39:04;100193.63;;;14.57;100.00
80509;BME280;69838;52.602;13.434;2023-08-06T03:39:49;100189.09;;;14.57;100.00
80509;BME280;69838;52.602;13.434;2023-08-06T03:40:35;100187.34;;;14.56;100.00
80509;BME280;69838;52.602;13.434;2023-08-06T03:41:21;100194.31;;;14.60;100.00
80509;BME280;69838;52.602;13.434;2023-08-06T03:42:06;100183.66;;;14.57;100.00
80509;BME280;69838;52.602;13.434;2023-08-06T03:42:51;100191.69;;;14.59;100.00
80509;BME280;69838;52.602;13.434;2023-08-06T03:43:36;100181.47;;;14.62;100.00
80509;BME280;69838;52.602;13.434;2023-08-06T03:44:22;100184.06;;;14.64;100.00
80509;BME280;69838;52.602;13.434;2023-08-06T03:45:07;100183.44;;;14.60;100.00
80509;BME280;69838;52.602;13.434;2023-08-06T03:45:53;100186.91;;;14.62;100.00
80509;BME280;69838;52.602;13.434;2023-08-06T03:46:38;100187.16;;;14.59;100.00
80509;BME280;69838;52.602;13.434;2023-08-06T03:47:23;100184.97;;;14.64;100.00
80509;BME280;69838;52.602;13.434;2023-08-06T03:48:08;100181.47;;;14.62;100.00
80509;BME280;69838;52.602;13.434;2023-08-06T03:48:54;100189.75;;;14.61;100.00
80509;BME280;69838;52.602;13.434;2023-08-06T03:49:39;100185.19;;;14.61;100.00
80509;BME280;69838;52.602;13.434;2023-08-06T03:50:24;100181.63;;;14.61;100.00
80509;BME280;69838;52.602;13.434;2023-08-06T03:51:09;100177.78;;;14.63;100.00
80509;BME280;69838;52.602;13.434;2023-08-06T03:51:55;100181.47;;;14.62;100.00
80509;BME280;69838;52.602;13.434;2023-08-06T03:52:40;100174.97;;;14.65;100.00
80509;BME280;69838;52.602;13.434;2023-08-06T03:53:25;100174.84;;;14.66;100.00
80509;BME280;69838;52.602;13.434;2023-08-06T03:54:10;100178.53;;;14.65;100.00
80509;BME280;69838;52.602;13.434;2023-08-06T03:54:56;100185.81;;;14.65;100.00
80509;BME280;69838;52.602;13.434;2023-08-06T03:55:41;100173.09;;;14.65;100.00
80509;BME280;69838;52.602;13.434;2023-08-06T03:56:26;100180.41;;;14.65;100.00
80509;BME280;69838;52.602;13.434;2023-08-06T03:57:12;100176.81;;;14.64;100.00
80509;BME280;69838;52.602;13.434;2023-08-06T03:57:57;100178.00;;;14.60;100.00
80509;BME280;69838;52.602;13.434;2023-08-06T03:58:43;100172.56;;;14.60;100.00